Merbein, Australia
Current Conditions -  °F | °C
As of 3:00 PM on Wednesday 26 Nov 2014 (Local Time) from YMIA Reporting Station
Clear Clear  
Wind Chill: 79°   Ceiling: Unl
Heat Index: 79°   Visibility: 6mi
Dew Point: 37°   Wind: 9mph
Humidity: 23%   Direction: 190°S
Pressure: 30.12"   Gusts: NA
Location:  34.17°S, 142.06°E
Report Text: YMIA 260400Z 19008KT 180V250 CAVOK 26/03 Q1020
Loading
Personal Weather Stations






























Interactive Weather Map New forecast layout! Learn more

10-Day Weather Forecast

Advertisements
Track Severe Weather on mobile